Time;durP1;ratioP1;P1;durP2;ratioP2;P2;SDS_P1;SDS_P2;PMS_P1;PMS_P2;Temp;Humidity;BMP_temperature;BMP_pressure;BME280_temperature;BME280_humidity;BME280_pressure;Samples;Min_cycle;Max_cycle;Signal;HPM_P1;HPM_P2
2022/11/17 00:00:06;;;;;;;6.33;2.70;;;11.70;79.90;;;;;;5028605;28;20460;-70
2022/11/17 00:02:37;;;;;;;5.33;2.70;;;11.70;79.90;;;;;;5032037;28;20985;-71
2022/11/17 00:05:06;;;;;;;8.30;2.97;;;11.70;79.80;;;;;;5020758;28;20460;-71
2022/11/17 00:07:34;;;;;;;8.13;3.40;;;11.70;79.80;;;;;;5018620;28;21272;-71
2022/11/17 00:10:02;;;;;;;9.33;3.10;;;11.70;79.90;;;;;;5019833;28;20856;-70
2022/11/17 00:15:15;;;;;;;6.60;2.60;;;11.60;79.90;;;;;;5025980;28;20451;-71
2022/11/17 00:17:46;;;;;;;8.33;3.47;;;11.60;79.90;;;;;;5024396;28;21030;-71
2022/11/17 00:23:00;;;;;;;6.90;2.77;;;11.60;79.90;;;;;;5021992;28;20464;-70
2022/11/17 00:25:28;;;;;;;8.67;2.83;;;11.60;79.90;;;;;;5022158;28;20456;-71
2022/11/17 00:27:55;;;;;;;7.30;2.97;;;11.60;80.00;;;;;;5019822;28;20813;-71
2022/11/17 00:35:58;;;;;;;8.80;3.87;;;11.50;79.80;;;;;;5023670;28;20463;-71
2022/11/17 00:38:26;;;;;;;8.13;4.00;;;11.40;79.90;;;;;;5021185;28;21002;-71
2022/11/17 00:40:54;;;;;;;27.50;13.53;;;11.40;80.10;;;;;;5025920;28;20918;-71
2022/11/17 00:43:22;;;;;;;27.50;11.37;;;11.40;80.20;;;;;;5022461;28;20576;-70
2022/11/17 00:45:50;;;;;;;23.43;10.00;;;11.40;80.30;;;;;;5023147;28;21059;-71
2022/11/17 00:48:19;;;;;;;22.23;10.10;;;11.40;80.50;;;;;;5023635;28;20487;-70
2022/11/17 00:50:47;;;;;;;54.50;20.67;;;11.40;80.50;;;;;;5023935;28;20470;-74
2022/11/17 00:53:15;;;;;;;23.23;6.53;;;11.50;80.30;;;;;;5019495;28;20465;-70
2022/11/17 00:55:43;;;;;;;13.30;5.73;;;11.40;80.10;;;;;;5022521;28;21139;-70
2022/11/17 00:58:11;;;;;;;9.63;3.90;;;11.40;80.20;;;;;;5023033;28;20529;-71
2022/11/17 01:00:39;;;;;;;14.23;5.67;;;11.30;80.20;;;;;;5020476;28;20465;-70
2022/11/17 01:03:07;;;;;;;17.10;6.10;;;11.30;80.30;;;;;;5022827;28;20968;-70
2022/11/17 01:05:36;;;;;;;8.57;3.90;;;11.40;80.50;;;;;;5019285;28;20499;-70
2022/11/17 01:08:05;;;;;;;8.80;3.37;;;11.40;80.60;;;;;;5021156;28;20560;-70
2022/11/17 01:10:34;;;;;;;6.83;2.33;;;11.40;80.60;;;;;;5024372;28;20735;-70
2022/11/17 01:13:03;;;;;;;9.00;3.70;;;11.50;80.50;;;;;;5023801;28;20507;-70
2022/11/17 01:15:31;;;;;;;12.57;4.83;;;11.50;80.50;;;;;;5022049;28;20457;-70
2022/11/17 01:17:59;;;;;;;9.83;4.10;;;11.50;80.50;;;;;;5020150;28;20483;-70
2022/11/17 01:20:27;;;;;;;6.73;3.20;;;11.50;80.40;;;;;;5025646;28;20456;-70
2022/11/17 01:22:56;;;;;;;6.30;2.73;;;11.50;80.40;;;;;;5022067;28;20513;-69
2022/11/17 01:25:24;;;;;;;9.90;3.70;;;11.50;80.30;;;;;;5027744;28;20455;-69
2022/11/17 01:27:52;;;;;;;12.60;3.80;;;11.50;80.30;;;;;;5027154;28;20520;-70
2022/11/17 01:30:20;;;;;;;6.50;3.20;;;11.50;80.30;;;;;;5027800;28;20495;-70
2022/11/17 01:32:48;;;;;;;5.90;2.80;;;11.50;80.30;;;;;;5027033;28;20881;-70
2022/11/17 01:35:16;;;;;;;7.43;3.23;;;11.40;80.30;;;;;;5027066;28;20456;-70
2022/11/17 01:37:43;;;;;;;7.83;2.90;;;11.40;80.20;;;;;;5023978;28;20483;-69
2022/11/17 01:40:13;;;;;;;7.07;3.00;;;11.30;80.30;;;;;;5025163;28;20453;-70
2022/11/17 01:42:41;;;;;;;6.60;2.80;;;11.30;80.30;;;;;;5025106;28;20467;-70
2022/11/17 01:45:19;;;;;;;8.70;3.63;;;11.30;80.60;;;;;;5026258;28;20464;-71
2022/11/17 01:47:51;;;;;;;6.80;2.90;;;11.30;80.60;;;;;;5027146;28;20549;-69
2022/11/17 01:50:27;;;;;;;14.70;6.60;;;11.30;80.60;;;;;;5025507;28;20487;-69
2022/11/17 01:52:58;;;;;;;8.97;4.30;;;11.30;80.70;;;;;;5021004;28;20459;-71
2022/11/17 01:55:32;;;;;;;9.30;4.20;;;11.30;80.70;;;;;;5028112;28;20473;-70
2022/11/17 01:58:05;;;;;;;9.77;4.37;;;11.30;80.70;;;;;;5022490;28;20858;-70
2022/11/17 02:00:33;;;;;;;6.57;3.30;;;11.30;80.60;;;;;;5028847;28;20798;-70
2022/11/17 02:03:01;;;;;;;8.30;3.93;;;11.30;80.60;;;;;;5020202;28;20463;-71
2022/11/17 02:05:39;;;;;;;10.63;3.67;;;11.20;80.70;;;;;;5032462;28;20456;-70
2022/11/17 02:08:08;;;;;;;8.33;4.43;;;11.20;80.70;;;;;;5023345;28;20483;-69
2022/11/17 02:10:38;;;;;;;9.13;3.63;;;11.20;80.70;;;;;;5025872;28;20553;-69
2022/11/17 02:13:08;;;;;;;10.30;4.40;;;11.10;80.70;;;;;;5026400;28;20459;-72
2022/11/17 02:15:36;;;;;;;6.20;3.47;;;11.00;80.90;;;;;;5022201;28;20468;-70
2022/11/17 02:18:05;;;;;;;8.33;5.07;;;11.00;80.90;;;;;;5022285;28;20534;-69
2022/11/17 02:20:48;;;;;;;8.80;4.30;;;11.00;81.00;;;;;;5023298;28;20447;-71
2022/11/17 02:23:54;;;;;;;7.03;3.67;;;11.00;81.10;;;;;;5025198;28;20880;-71
2022/11/17 02:26:47;;;;;;;9.83;4.30;;;11.00;81.20;;;;;;5028938;28;20505;-69
2022/11/17 02:29:26;;;;;;;8.90;4.47;;;10.90;81.30;;;;;;5025948;28;20488;-71
2022/11/17 02:31:59;;;;;;;8.50;5.10;;;10.90;81.40;;;;;;5027663;28;20463;-71
2022/11/17 02:34:38;;;;;;;8.03;5.40;;;10.90;81.40;;;;;;5032972;28;20862;-71
2022/11/17 02:37:13;;;;;;;9.00;4.70;;;10.90;81.60;;;;;;5028355;28;21044;-71
2022/11/17 02:39:47;;;;;;;12.57;5.40;;;11.00;81.60;;;;;;5030298;28;21030;-71
2022/11/17 02:44:02;;;;;;;11.40;5.70;;;11.00;81.60;;;;;;5020783;28;20471;-72
2022/11/17 02:45:17;;;;;;;10.30;6.07;;;11.00;81.60;;;;;;5025320;28;20455;-71
2022/11/17 02:47:49;;;;;;;11.23;6.60;;;11.00;81.70;;;;;;5024139;28;20839;-71
2022/11/17 02:50:18;;;;;;;11.80;6.13;;;11.00;81.70;;;;;;5025769;28;20537;-71
2022/11/17 02:52:52;;;;;;;9.83;6.10;;;11.00;81.60;;;;;;5028017;28;20451;-71
2022/11/17 02:55:20;;;;;;;15.53;6.50;;;11.00;81.70;;;;;;5027397;28;20463;-71
2022/11/17 02:57:48;;;;;;;10.10;6.43;;;11.00;81.70;;;;;;5029620;28;20478;-71
2022/11/17 03:00:19;;;;;;;10.93;6.70;;;10.90;81.80;;;;;;5025793;28;20980;-71
2022/11/17 03:03:10;;;;;;;12.40;7.20;;;10.90;81.90;;;;;;5023165;28;20448;-71
2022/11/17 03:05:43;;;;;;;11.53;6.87;;;10.90;81.90;;;;;;5028723;28;20456;-71
2022/11/17 03:08:21;;;;;;;10.27;6.20;;;10.90;82.00;;;;;;5025043;28;20505;-71
2022/11/17 03:10:56;;;;;;;10.10;7.00;;;10.90;82.10;;;;;;5024047;28;21171;-70
2022/11/17 03:13:32;;;;;;;12.43;6.80;;;10.80;82.20;;;;;;5027539;28;20451;-70
2022/11/17 03:16:12;;;;;;;13.63;6.73;;;10.80;82.10;;;;;;5026944;28;21177;-70
2022/11/17 03:18:49;;;;;;;11.50;7.30;;;10.90;82.20;;;;;;5016620;28;20943;-70
2022/11/17 03:21:21;;;;;;;11.73;8.30;;;10.90;82.30;;;;;;5019627;28;20448;-70
2022/11/17 03:23:54;;;;;;;12.77;7.97;;;10.90;82.30;;;;;;5021404;28;20475;-71
2022/11/17 03:26:27;;;;;;;11.53;7.43;;;10.90;82.20;;;;;;5026052;28;20456;-70
2022/11/17 03:28:57;;;;;;;14.07;8.60;;;10.80;82.30;;;;;;5024141;28;20883;-70
2022/11/17 03:31:29;;;;;;;13.00;8.73;;;10.80;82.30;;;;;;5025655;28;20456;-70
2022/11/17 03:33:58;;;;;;;12.90;9.37;;;10.80;82.40;;;;;;5022534;28;20456;-70
2022/11/17 03:36:32;;;;;;;18.40;10.10;;;10.80;82.40;;;;;;5024684;28;20452;-70
2022/11/17 03:39:06;;;;;;;13.40;10.13;;;10.70;82.50;;;;;;5024591;28;21133;-70
2022/11/17 03:41:39;;;;;;;16.00;10.17;;;10.70;82.70;;;;;;5021720;28;20451;-70
2022/11/17 03:44:07;;;;;;;15.03;10.37;;;10.70;82.80;;;;;;5026476;28;20460;-70
2022/11/17 03:46:38;;;;;;;17.13;11.30;;;10.60;82.80;;;;;;5024836;28;20468;-70
2022/11/17 03:49:14;;;;;;;16.80;10.50;;;10.60;82.80;;;;;;5021573;28;20482;-70
2022/11/17 03:51:42;;;;;;;15.30;10.10;;;10.60;83.00;;;;;;5024075;28;20453;-69
2022/11/17 03:54:11;;;;;;;16.30;10.87;;;10.60;83.10;;;;;;5025781;28;20453;-70
2022/11/17 03:56:50;;;;;;;13.27;10.37;;;10.50;83.30;;;;;;5027890;28;20516;-70
2022/11/17 03:59:22;;;;;;;16.37;10.13;;;10.50;83.30;;;;;;5025580;28;20472;-70
2022/11/17 04:01:52;;;;;;;19.03;11.73;;;10.50;83.50;;;;;;5021764;28;21106;-70
2022/11/17 04:04:22;;;;;;;18.90;13.30;;;10.50;83.50;;;;;;5025786;28;20452;-71
2022/11/17 04:06:51;;;;;;;17.10;12.60;;;10.50;83.70;;;;;;5024989;28;20448;-71
2022/11/17 04:09:19;;;;;;;19.73;12.30;;;10.50;83.70;;;;;;5027204;28;20471;-71
2022/11/17 04:17:24;;;;;;;17.93;12.13;;;10.40;84.10;;;;;;5024092;28;20479;-69
2022/11/17 04:19:52;;;;;;;16.63;11.53;;;10.40;84.00;;;;;;5026419;28;20460;-69
2022/11/17 04:22:20;;;;;;;17.93;11.17;;;10.40;84.20;;;;;;5024484;28;20509;-69
2022/11/17 04:24:48;;;;;;;16.13;10.27;;;10.50;84.20;;;;;;5029714;28;20452;-69
2022/11/17 04:30:01;;;;;;;15.57;11.20;;;10.60;84.20;;;;;;5019224;28;20496;-71
2022/11/17 04:32:31;;;;;;;16.47;11.50;;;10.60;84.10;;;;;;5024122;28;20464;-70
2022/11/17 04:34:59;;;;;;;15.70;11.53;;;10.70;83.90;;;;;;5026137;28;20491;-71
2022/11/17 04:37:26;;;;;;;18.30;12.67;;;10.70;83.90;;;;;;5028048;28;20476;-69
2022/11/17 04:39:55;;;;;;;15.10;11.47;;;10.70;83.80;;;;;;5023414;28;20510;-70
2022/11/17 04:42:22;;;;;;;18.70;12.20;;;10.60;83.90;;;;;;5030539;28;20471;-69
2022/11/17 04:44:50;;;;;;;17.83;11.97;;;10.60;83.90;;;;;;5031815;28;20463;-71
2022/11/17 04:47:17;;;;;;;17.30;11.47;;;10.60;84.00;;;;;;5029709;28;21008;-72
2022/11/17 04:49:47;;;;;;;16.93;11.20;;;10.60;84.10;;;;;;5026595;28;20456;-69
2022/11/17 04:52:15;;;;;;;17.47;11.33;;;10.60;84.00;;;;;;5027284;28;20449;-71
2022/11/17 04:54:43;;;;;;;23.33;12.67;;;10.60;84.10;;;;;;5028347;28;20978;-71
2022/11/17 04:57:11;;;;;;;16.73;11.10;;;10.60;84.10;;;;;;5036529;28;20530;-71
2022/11/17 04:59:39;;;;;;;15.13;10.77;;;10.60;84.10;;;;;;5032729;28;20477;-71
2022/11/17 05:02:06;;;;;;;15.97;11.13;;;10.60;84.20;;;;;;5035173;28;20460;-70
2022/11/17 05:07:21;;;;;;;16.47;10.70;;;10.70;84.20;;;;;;5029635;28;20510;-71
2022/11/17 05:09:49;;;;;;;16.00;11.27;;;10.70;84.00;;;;;;5031665;28;20462;-71
2022/11/17 05:15:03;;;;;;;18.20;12.67;;;10.60;84.10;;;;;;5032441;28;20462;-71
2022/11/17 05:17:30;;;;;;;17.30;11.60;;;10.60;84.10;;;;;;5032265;28;20984;-71
2022/11/17 05:19:57;;;;;;;18.23;11.80;;;10.60;84.10;;;;;;5029631;28;20879;-71
2022/11/17 05:25:12;;;;;;;15.20;10.73;;;10.60;84.40;;;;;;5029737;28;20514;-71
2022/11/17 05:27:40;;;;;;;15.60;10.47;;;10.70;84.40;;;;;;5029264;28;20510;-71
2022/11/17 05:30:10;;;;;;;17.03;9.93;;;10.70;84.40;;;;;;5028840;28;20451;-71
2022/11/17 05:32:38;;;;;;;15.20;10.27;;;10.70;84.40;;;;;;5023297;28;20465;-71
2022/11/17 05:35:07;;;;;;;13.00;9.03;;;10.70;84.40;;;;;;5025541;28;20448;-71
2022/11/17 05:37:37;;;;;;;16.37;9.43;;;10.70;84.20;;;;;;5028156;28;20476;-69
2022/11/17 05:40:06;;;;;;;12.87;8.57;;;10.70;84.40;;;;;;5030601;28;20463;-70
2022/11/17 05:42:34;;;;;;;13.30;9.37;;;10.70;84.40;;;;;;5029066;28;20486;-70
2022/11/17 05:45:02;;;;;;;14.17;8.93;;;10.70;84.50;;;;;;5027434;28;20459;-69
2022/11/17 05:47:30;;;;;;;13.23;8.60;;;10.70;84.50;;;;;;5028352;28;20571;-71
2022/11/17 05:49:58;;;;;;;11.33;7.93;;;10.70;84.50;;;;;;5028270;28;20460;-69
2022/11/17 05:52:26;;;;;;;12.90;8.33;;;10.70;84.50;;;;;;5028333;28;20486;-69
2022/11/17 05:54:55;;;;;;;23.70;13.20;;;10.70;84.60;;;;;;5026986;28;20821;-70
2022/11/17 05:57:30;;;;;;;13.60;8.43;;;10.80;84.60;;;;;;5027232;28;20902;-70
2022/11/17 06:00:03;;;;;;;18.30;12.23;;;10.80;84.60;;;;;;5029103;28;21046;-70
2022/11/17 06:02:43;;;;;;;13.50;8.97;;;10.80;84.50;;;;;;5029060;28;21108;-71
2022/11/17 06:05:11;;;;;;;26.67;14.20;;;10.90;84.50;;;;;;5025493;28;20514;-72
2022/11/17 06:07:47;;;;;;;11.57;6.20;;;10.90;84.40;;;;;;5023578;28;20537;-71
2022/11/17 06:10:17;;;;;;;23.10;13.23;;;10.90;84.30;;;;;;5026654;28;20474;-70
2022/11/17 06:12:45;;;;;;;15.47;9.83;;;10.90;84.30;;;;;;5025690;28;20846;-70
2022/11/17 06:15:13;;;;;;;12.50;7.27;;;10.90;84.30;;;;;;5025760;28;20510;-70
2022/11/17 06:17:44;;;;;;;10.13;7.30;;;10.90;84.30;;;;;;5027032;28;20480;-70
2022/11/17 06:20:16;;;;;;;7.90;5.23;;;10.90;84.40;;;;;;5025308;28;21093;-71
2022/11/17 06:22:44;;;;;;;9.40;5.40;;;10.90;84.40;;;;;;5027156;28;20452;-71
2022/11/17 06:25:18;;;;;;;10.80;6.00;;;10.90;84.40;;;;;;5027451;28;20454;-70
2022/11/17 06:27:47;;;;;;;7.23;4.37;;;10.90;84.40;;;;;;5027162;28;20471;-70
2022/11/17 06:30:15;;;;;;;9.77;4.97;;;10.90;84.30;;;;;;5025328;28;20469;-70
2022/11/17 06:32:45;;;;;;;9.07;5.30;;;10.90;84.30;;;;;;5023178;28;20941;-69
2022/11/17 06:35:15;;;;;;;17.03;6.27;;;10.90;84.40;;;;;;5028509;28;20453;-70
2022/11/17 06:37:43;;;;;;;9.73;5.13;;;10.90;84.30;;;;;;5020427;28;20959;-70
2022/11/17 06:40:12;;;;;;;9.60;5.93;;;10.90;84.40;;;;;;5025574;28;21822;-70
2022/11/17 06:45:27;;;;;;;8.10;4.80;;;10.90;84.40;;;;;;5024714;28;20460;-70
2022/11/17 06:47:55;;;;;;;10.73;5.30;;;10.80;84.40;;;;;;5021048;28;20472;-70
2022/11/17 06:50:23;;;;;;;10.37;4.83;;;10.80;84.50;;;;;;5021818;28;20464;-71
2022/11/17 06:52:51;;;;;;;7.03;4.07;;;10.80;84.60;;;;;;5024256;28;20916;-70
2022/11/17 06:55:19;;;;;;;9.70;5.47;;;10.80;84.70;;;;;;5029386;28;20452;-69
2022/11/17 06:57:48;;;;;;;7.67;5.10;;;10.80;84.70;;;;;;5028656;28;20512;-72
2022/11/17 07:00:21;;;;;;;9.57;5.30;;;10.80;84.70;;;;;;5025247;28;21181;-72
2022/11/17 07:02:49;;;;;;;9.93;5.87;;;10.80;84.80;;;;;;5026170;28;20444;-70
2022/11/17 07:05:17;;;;;;;10.40;5.67;;;10.80;84.70;;;;;;5024798;28;20463;-69
2022/11/17 07:07:45;;;;;;;6.90;4.00;;;10.90;84.90;;;;;;5026323;28;20534;-70
2022/11/17 07:10:13;;;;;;;6.70;4.23;;;10.90;84.90;;;;;;5029583;28;21329;-71
2022/11/17 07:12:41;;;;;;;8.33;4.17;;;10.90;84.90;;;;;;5022995;28;20495;-71
2022/11/17 07:15:11;;;;;;;11.13;5.03;;;11.00;85.00;;;;;;5029245;28;20453;-68
2022/11/17 07:17:38;;;;;;;84.83;45.07;;;11.00;85.00;;;;;;5019089;28;20480;-68
2022/11/17 07:20:09;;;;;;;43.77;24.47;;;11.10;85.10;;;;;;5023945;28;20550;-70
2022/11/17 07:22:37;;;;;;;35.80;21.50;;;11.10;85.00;;;;;;5019833;28;20459;-69
2022/11/17 07:25:06;;;;;;;20.90;13.73;;;11.10;85.00;;;;;;5024238;28;20452;-68
2022/11/17 07:27:34;;;;;;;8.53;4.80;;;11.20;85.00;;;;;;5024034;28;20475;-69
2022/11/17 07:30:02;;;;;;;7.20;4.17;;;11.20;84.90;;;;;;5021142;28;20541;-70
2022/11/17 07:32:32;;;;;;;6.80;3.90;;;11.20;84.90;;;;;;5021897;28;20484;-70
2022/11/17 07:35:00;;;;;;;8.10;4.83;;;11.20;84.90;;;;;;5021963;28;20468;-70
2022/11/17 07:37:32;;;;;;;7.67;4.47;;;11.20;85.00;;;;;;5025626;28;20992;-69
2022/11/17 07:40:00;;;;;;;6.73;3.80;;;11.20;85.00;;;;;;5025930;28;20459;-69
2022/11/17 07:42:28;;;;;;;10.83;3.73;;;11.20;85.20;;;;;;5023369;28;20968;-69
2022/11/17 07:44:57;;;;;;;6.40;3.43;;;11.30;85.00;;;;;;5019895;28;20456;-70
2022/11/17 07:47:25;;;;;;;5.93;3.50;;;11.30;85.20;;;;;;5025178;28;20463;-69
2022/11/17 07:49:54;;;;;;;10.03;3.80;;;11.30;85.20;;;;;;5024786;28;20464;-69
2022/11/17 07:52:22;;;;;;;6.07;3.40;;;11.40;85.20;;;;;;5025717;28;20491;-69
2022/11/17 07:54:50;;;;;;;7.53;3.90;;;11.40;85.20;;;;;;5028405;28;21259;-69
2022/11/17 07:57:19;;;;;;;6.33;3.00;;;11.40;85.20;;;;;;5022143;28;20517;-69
2022/11/17 07:59:47;;;;;;;6.10;3.10;;;11.50;85.10;;;;;;5026371;28;20953;-70
2022/11/17 08:02:15;;;;;;;15.10;2.63;;;11.50;85.10;;;;;;5026554;28;20456;-69
2022/11/17 08:04:43;;;;;;;5.77;2.63;;;11.50;85.10;;;;;;5026181;28;20460;-69
2022/11/17 08:07:12;;;;;;;8.47;3.50;;;11.50;85.00;;;;;;5026552;28;20482;-69
2022/11/17 08:09:41;;;;;;;8.60;3.50;;;11.60;84.90;;;;;;5021375;28;20456;-69
2022/11/17 08:12:08;;;;;;;6.60;2.97;;;11.60;85.00;;;;;;5017384;28;20520;-69
2022/11/17 08:14:37;;;;;;;5.50;2.70;;;11.60;85.00;;;;;;5019754;28;20514;-69
2022/11/17 08:17:05;;;;;;;5.90;2.30;;;11.60;85.20;;;;;;5022851;28;20468;-69
2022/11/17 08:19:33;;;;;;;4.40;2.40;;;11.60;85.30;;;;;;5021607;28;20637;-69
2022/11/17 08:22:00;;;;;;;5.77;2.77;;;11.70;85.30;;;;;;5024763;28;20530;-69
2022/11/17 08:24:30;;;;;;;5.23;2.27;;;11.70;85.30;;;;;;5020629;28;20498;-69
2022/11/17 08:26:58;;;;;;;7.43;2.70;;;11.70;85.20;;;;;;5023845;28;20481;-68
2022/11/17 08:29:26;;;;;;;7.10;2.50;;;11.80;85.20;;;;;;5027589;28;20487;-69
2022/11/17 08:31:53;;;;;;;5.50;2.80;;;11.70;85.20;;;;;;5025332;28;20472;-69
2022/11/17 08:34:21;;;;;;;6.17;2.70;;;11.80;85.30;;;;;;5027327;28;20518;-69
2022/11/17 08:36:49;;;;;;;4.80;2.47;;;11.70;85.30;;;;;;5032450;28;20512;-68
2022/11/17 08:39:17;;;;;;;5.50;2.50;;;11.70;85.30;;;;;;5029380;28;20895;-69
2022/11/17 08:41:47;;;;;;;7.50;3.10;;;11.70;85.30;;;;;;5029866;28;20499;-69
2022/11/17 08:44:15;;;;;;;5.70;2.73;;;11.70;85.40;;;;;;5030753;28;20456;-69
2022/11/17 08:46:42;;;;;;;6.43;3.10;;;11.70;85.50;;;;;;5036579;28;20865;-69
2022/11/17 08:49:10;;;;;;;7.07;2.87;;;11.80;85.40;;;;;;5025622;28;20475;-69
2022/11/17 08:51:38;;;;;;;5.13;2.67;;;11.80;85.40;;;;;;5024045;28;20507;-69
2022/11/17 08:54:06;;;;;;;6.60;3.50;;;11.70;85.50;;;;;;5025526;28;20456;-69
2022/11/17 08:56:34;;;;;;;5.00;2.63;;;11.80;85.60;;;;;;5026147;28;20459;-68
2022/11/17 08:59:03;;;;;;;7.33;3.17;;;11.80;85.60;;;;;;5028810;28;20533;-71
2022/11/17 09:01:31;;;;;;;5.10;3.17;;;11.80;85.60;;;;;;5027409;28;20455;-69
2022/11/17 09:04:00;;;;;;;5.40;3.03;;;11.80;85.60;;;;;;5023651;28;20455;-71
2022/11/17 09:06:28;;;;;;;6.13;3.33;;;11.80;85.70;;;;;;5029351;28;20462;-69
2022/11/17 09:08:56;;;;;;;7.03;3.03;;;11.80;85.70;;;;;;5043432;28;20541;-69
2022/11/17 09:11:25;;;;;;;6.07;2.70;;;11.80;85.70;;;;;;5023672;28;20464;-69
2022/11/17 09:13:52;;;;;;;5.83;3.00;;;11.90;85.60;;;;;;5025741;28;20483;-71
2022/11/17 09:16:24;;;;;;;5.10;2.60;;;11.80;85.60;;;;;;5026235;28;20455;-70
2022/11/17 09:18:55;;;;;;;6.73;3.20;;;11.90;85.70;;;;;;5023925;28;20475;-71
2022/11/17 09:21:32;;;;;;;7.70;3.30;;;11.80;85.90;;;;;;5023291;28;20463;-69
2022/11/17 09:24:00;;;;;;;4.93;2.67;;;11.90;85.80;;;;;;5024909;28;20459;-70
2022/11/17 09:26:28;;;;;;;6.90;2.90;;;11.90;85.90;;;;;;5028993;28;20471;-70
2022/11/17 09:29:00;;;;;;;7.10;3.50;;;11.90;85.90;;;;;;5026141;28;20476;-71
2022/11/17 09:31:30;;;;;;;7.43;2.73;;;12.00;85.90;;;;;;5027432;28;21051;-70
2022/11/17 09:33:58;;;;;;;5.73;3.03;;;12.00;85.80;;;;;;5026079;28;20484;-70
2022/11/17 09:36:32;;;;;;;6.57;3.10;;;12.00;85.90;;;;;;5022508;28;20459;-70
2022/11/17 09:38:59;;;;;;;7.00;2.90;;;12.00;85.90;;;;;;5025015;28;20488;-70
2022/11/17 09:41:34;;;;;;;4.30;2.17;;;12.10;85.80;;;;;;5027732;28;20460;-70
2022/11/17 09:44:13;;;;;;;6.30;2.50;;;12.10;85.90;;;;;;5026054;28;20467;-69
2022/11/17 09:46:55;;;;;;;4.97;2.10;;;12.10;86.00;;;;;;5023958;28;20461;-71
2022/11/17 09:49:36;;;;;;;4.70;1.93;;;12.10;86.00;;;;;;5030630;28;20475;-69
2022/11/17 09:52:13;;;;;;;7.80;2.77;;;12.20;86.00;;;;;;5036051;28;20547;-71
2022/11/17 09:54:47;;;;;;;8.87;2.70;;;12.20;86.00;;;;;;5026716;28;20482;-71
2022/11/17 09:57:22;;;;;;;8.30;2.47;;;12.20;86.00;;;;;;5033072;28;20451;-69
2022/11/17 10:00:00;;;;;;;4.53;1.97;;;12.30;86.00;;;;;;5027148;28;20463;-70
2022/11/17 10:02:29;;;;;;;5.60;2.00;;;12.30;85.90;;;;;;5022470;28;21040;-71
2022/11/17 10:04:57;;;;;;;5.27;1.50;;;12.20;85.90;;;;;;5026430;28;20816;-70
2022/11/17 10:07:29;;;;;;;5.03;2.10;;;12.20;86.00;;;;;;5027854;28;20456;-70
2022/11/17 10:10:00;;;;;;;3.87;1.60;;;12.20;86.00;;;;;;5023009;28;21072;-70
2022/11/17 10:12:38;;;;;;;6.97;2.37;;;12.20;86.00;;;;;;5024648;28;20467;-70
2022/11/17 10:15:21;;;;;;;5.40;2.00;;;12.30;86.10;;;;;;5026166;28;20522;-70
2022/11/17 10:17:52;;;;;;;9.07;2.37;;;12.30;86.10;;;;;;5022756;28;20475;-70
2022/11/17 10:20:20;;;;;;;4.87;2.30;;;12.30;86.20;;;;;;5020682;28;20456;-71
2022/11/17 10:22:50;;;;;;;8.73;3.30;;;12.30;86.20;;;;;;5023692;28;20598;-70
2022/11/17 10:25:37;;;;;;;5.33;1.83;;;12.40;86.20;;;;;;5025830;28;20461;-70
2022/11/17 10:28:22;;;;;;;5.30;2.43;;;12.40;86.20;;;;;;5022275;28;20483;-70
2022/11/17 10:30:54;;;;;;;6.10;2.10;;;12.50;86.20;;;;;;5026520;28;20474;-70
2022/11/17 10:33:37;;;;;;;4.40;1.53;;;12.50;86.20;;;;;;5025420;28;20468;-70
2022/11/17 10:36:13;;;;;;;5.40;2.03;;;12.60;86.30;;;;;;5022400;28;20467;-70
2022/11/17 10:38:44;;;;;;;9.03;2.10;;;12.60;86.20;;;;;;5024679;28;20487;-70
2022/11/17 10:41:17;;;;;;;5.73;2.20;;;12.70;86.20;;;;;;5023976;28;20452;-70
2022/11/17 10:43:56;;;;;;;6.93;1.90;;;12.70;86.30;;;;;;5019916;28;20490;-70
2022/11/17 10:46:24;;;;;;;6.80;1.70;;;12.80;86.30;;;;;;5023601;28;20858;-70
2022/11/17 10:48:59;;;;;;;5.17;1.97;;;12.80;86.20;;;;;;5023623;28;20480;-70
2022/11/17 10:51:28;;;;;;;7.37;1.93;;;12.80;86.00;;;;;;5025458;28;20959;-70
2022/11/17 10:54:06;;;;;;;7.63;1.83;;;12.80;85.90;;;;;;5024942;28;20970;-70
2022/11/17 10:56:39;;;;;;;6.50;2.03;;;12.80;85.80;;;;;;5026891;28;20467;-70
2022/11/17 10:59:17;;;;;;;6.37;1.90;;;12.80;85.70;;;;;;5026574;28;20487;-70
2022/11/17 11:01:47;;;;;;;10.00;1.93;;;12.80;85.80;;;;;;5022911;28;20884;-70
2022/11/17 11:04:39;;;;;;;6.00;2.17;;;12.80;85.70;;;;;;5023987;28;20448;-70
2022/11/17 11:07:10;;;;;;;7.43;1.73;;;12.80;85.80;;;;;;5027204;28;20475;-70
2022/11/17 11:09:44;;;;;;;7.03;1.87;;;12.80;85.70;;;;;;5029589;28;20526;-70
2022/11/17 11:12:16;;;;;;;6.03;2.00;;;12.80;85.70;;;;;;5023782;28;20524;-70
2022/11/17 11:14:50;;;;;;;10.70;2.10;;;12.80;85.70;;;;;;5016610;28;20574;-70
2022/11/17 11:17:19;;;;;;;6.77;1.90;;;12.80;85.80;;;;;;5018777;28;21165;-70
2022/11/17 11:19:52;;;;;;;6.10;1.90;;;12.80;85.80;;;;;;5025838;28;20471;-70
2022/11/17 11:22:27;;;;;;;8.23;1.70;;;12.80;85.80;;;;;;5021985;28;20471;-70
2022/11/17 11:25:08;;;;;;;6.43;1.90;;;12.80;85.80;;;;;;5022547;28;20472;-70
2022/11/17 11:28:12;;;;;;;6.10;1.53;;;12.80;85.80;;;;;;5018880;28;20489;-70
2022/11/17 11:30:47;;;;;;;6.70;1.70;;;12.80;85.60;;;;;;5022539;28;20486;-70
2022/11/17 11:33:29;;;;;;;6.40;1.70;;;12.70;85.70;;;;;;5025238;28;20459;-71
2022/11/17 11:36:13;;;;;;;8.57;2.10;;;12.70;85.70;;;;;;5024225;28;20483;-70
2022/11/17 11:38:51;;;;;;;7.87;1.80;;;12.70;85.80;;;;;;5026848;28;20898;-71
2022/11/17 11:41:39;;;;;;;7.53;2.13;;;12.70;85.80;;;;;;5025264;28;20459;-70
2022/11/17 11:44:36;;;;;;;4.50;1.63;;;12.70;85.80;;;;;;5025040;28;20463;-70
2022/11/17 11:47:19;;;;;;;5.73;2.47;;;12.70;85.80;;;;;;5024193;28;20521;-71
2022/11/17 11:49:52;;;;;;;11.63;3.23;;;12.70;85.80;;;;;;5028574;28;20458;-70
2022/11/17 11:52:24;;;;;;;8.87;2.77;;;12.70;85.80;;;;;;5013292;28;20819;-71
2022/11/17 11:54:56;;;;;;;7.70;1.60;;;12.80;85.70;;;;;;5024699;28;20471;-70
2022/11/17 11:57:28;;;;;;;8.77;1.20;;;12.70;85.70;;;;;;5022916;28;21088;-70
2022/11/17 12:00:00;;;;;;;6.30;1.93;;;12.70;85.60;;;;;;5028499;28;20461;-70
2022/11/17 12:02:42;;;;;;;4.63;1.23;;;12.70;85.60;;;;;;5024209;28;20458;-70
2022/11/17 12:05:21;;;;;;;4.03;1.10;;;12.80;85.60;;;;;;5024363;28;20459;-70
2022/11/17 12:07:58;;;;;;;5.00;0.93;;;12.80;85.50;;;;;;5025396;28;20480;-70
2022/11/17 12:10:32;;;;;;;4.10;1.10;;;12.80;85.40;;;;;;5022081;28;20481;-71
2022/11/17 12:13:01;;;;;;;5.43;1.10;;;12.80;85.10;;;;;;5021001;28;20513;-70
2022/11/17 12:15:36;;;;;;;3.73;0.83;;;12.70;85.20;;;;;;5020562;28;20997;-70
2022/11/17 12:18:11;;;;;;;3.97;0.90;;;12.80;85.20;;;;;;5018255;28;20488;-70
2022/11/17 12:21:01;;;;;;;7.37;1.20;;;12.80;85.20;;;;;;5023959;28;20494;-70
2022/11/17 12:23:59;;;;;;;5.47;0.90;;;12.80;85.10;;;;;;5025234;28;20486;-70
2022/11/17 12:26:29;;;;;;;3.37;0.70;;;12.80;85.00;;;;;;5025496;28;20456;-70
2022/11/17 12:29:24;;;;;;;6.00;1.10;;;12.90;84.90;;;;;;5023935;28;21082;-71
2022/11/17 12:31:53;;;;;;;3.00;0.60;;;12.90;84.80;;;;;;5018751;28;20456;-70
2022/11/17 12:34:23;;;;;;;5.33;0.70;;;13.00;84.80;;;;;;5022631;28;20495;-70
2022/11/17 12:37:18;;;;;;;5.00;1.20;;;13.00;84.70;;;;;;5022715;28;20911;-70
2022/11/17 12:40:01;;;;;;;4.73;0.77;;;13.00;84.70;;;;;;5025260;28;20532;-70
2022/11/17 12:42:30;;;;;;;5.80;0.87;;;13.00;84.10;;;;;;5029491;28;20468;-71
2022/11/17 12:45:07;;;;;;;5.97;1.33;;;13.00;84.40;;;;;;5023373;28;20466;-70
2022/11/17 12:47:36;;;;;;;5.33;0.80;;;13.00;84.40;;;;;;5019511;28;20562;-70
2022/11/17 12:50:40;;;;;;;4.70;1.23;;;13.00;84.40;;;;;;5022194;28;20464;-70
2022/11/17 12:53:23;;;;;;;3.10;0.70;;;13.00;84.40;;;;;;5024667;28;20584;-70
2022/11/17 12:56:14;;;;;;;6.00;0.90;;;13.00;84.30;;;;;;5027064;28;20484;-70
2022/11/17 12:58:52;;;;;;;6.53;0.87;;;13.00;84.30;;;;;;5022297;28;20915;-70
2022/11/17 13:01:27;;;;;;;5.17;1.30;;;13.00;84.30;;;;;;5019810;28;20562;-70
2022/11/17 13:04:01;;;;;;;5.50;1.10;;;13.00;84.30;;;;;;5022687;28;20968;-70
2022/11/17 13:06:29;;;;;;;5.27;1.53;;;13.10;84.10;;;;;;5024437;28;20467;-70
2022/11/17 13:09:06;;;;;;;4.20;1.10;;;13.10;84.00;;;;;;5024437;28;21051;-70
2022/11/17 13:11:35;;;;;;;6.70;1.57;;;13.10;83.80;;;;;;5021150;28;20468;-70
2022/11/17 13:14:08;;;;;;;4.83;0.77;;;13.10;83.80;;;;;;5018042;28;20455;-70
2022/11/17 13:16:43;;;;;;;5.10;0.90;;;13.00;83.90;;;;;;5023926;28;20859;-70
2022/11/17 13:19:30;;;;;;;6.47;1.20;;;13.00;83.90;;;;;;5026526;28;20540;-70
2022/11/17 13:22:00;;;;;;;11.97;1.57;;;13.00;83.70;;;;;;5029196;28;20514;-70
2022/11/17 13:24:30;;;;;;;8.53;1.63;;;13.00;83.70;;;;;;5029550;28;20446;-70
2022/11/17 13:27:00;;;;;;;5.13;1.60;;;13.00;83.70;;;;;;5029840;28;20459;-70
2022/11/17 13:29:29;;;;;;;7.13;1.47;;;13.00;83.70;;;;;;5025678;28;20495;-70
2022/11/17 13:32:15;;;;;;;7.23;1.80;;;13.00;83.90;;;;;;5025354;28;20491;-70
2022/11/17 13:34:52;;;;;;;6.10;1.53;;;13.00;83.70;;;;;;5028783;28;20548;-70